sensor_id;sensor_type;location;lat;lon;timestamp;P1;durP1;ratioP1;P2;durP2;ratioP2
53401;SDS011;39295;45.534;20.034;2023-02-27T00:01:43;12.32;;;8.48;;
53401;SDS011;39295;45.534;20.034;2023-02-27T00:04:09;13.73;;;7.75;;
53401;SDS011;39295;45.534;20.034;2023-02-27T00:09:39;13.25;;;8.07;;
53401;SDS011;39295;45.534;20.034;2023-02-27T00:12:06;11.80;;;8.18;;
53401;SDS011;39295;45.534;20.034;2023-02-27T00:14:32;15.38;;;9.20;;
53401;SDS011;39295;45.534;20.034;2023-02-27T00:16:58;13.82;;;9.02;;
53401;SDS011;39295;45.534;20.034;2023-02-27T00:23:04;13.38;;;9.20;;
53401;SDS011;39295;45.534;20.034;2023-02-27T00:25:31;11.80;;;7.90;;
53401;SDS011;39295;45.534;20.034;2023-02-27T00:31:20;14.60;;;8.82;;
53401;SDS011;39295;45.534;20.034;2023-02-27T00:34:05;12.52;;;8.07;;
53401;SDS011;39295;45.534;20.034;2023-02-27T00:36:49;11.05;;;7.60;;
53401;SDS011;39295;45.534;20.034;2023-02-27T00:39:16;11.30;;;7.75;;
53401;SDS011;39295;45.534;20.034;2023-02-27T00:41:42;10.85;;;7.20;;
53401;SDS011;39295;45.534;20.034;2023-02-27T00:44:08;8.85;;;6.68;;
53401;SDS011;39295;45.534;20.034;2023-02-27T00:46:35;9.80;;;6.72;;
53401;SDS011;39295;45.534;20.034;2023-02-27T00:49:01;10.50;;;7.10;;
53401;SDS011;39295;45.534;20.034;2023-02-27T00:51:29;11.55;;;6.80;;
53401;SDS011;39295;45.534;20.034;2023-02-27T00:53:55;8.88;;;6.68;;
53401;SDS011;39295;45.534;20.034;2023-02-27T00:56:40;10.57;;;6.90;;
53401;SDS011;39295;45.534;20.034;2023-02-27T01:02:10;9.98;;;6.88;;
53401;SDS011;39295;45.534;20.034;2023-02-27T01:07:58;9.38;;;7.15;;
53401;SDS011;39295;45.534;20.034;2023-02-27T01:29:33;10.77;;;7.07;;
53401;SDS011;39295;45.534;20.034;2023-02-27T04:00:31;12.52;;;7.10;;
53401;SDS011;39295;45.534;20.034;2023-02-27T04:40:42;10.05;;;6.82;;
53401;SDS011;39295;45.534;20.034;2023-02-27T04:43:08;14.05;;;8.20;;
53401;SDS011;39295;45.534;20.034;2023-02-27T04:45:36;13.75;;;7.60;;
53401;SDS011;39295;45.534;20.034;2023-02-27T04:48:07;10.23;;;6.70;;
53401;SDS011;39295;45.534;20.034;2023-02-27T04:50:40;11.80;;;6.93;;
53401;SDS011;39295;45.534;20.034;2023-02-27T04:53:12;9.05;;;5.88;;
53401;SDS011;39295;45.534;20.034;2023-02-27T04:55:50;10.40;;;6.78;;
53401;SDS011;39295;45.534;20.034;2023-02-27T04:58:20;10.73;;;6.47;;
53401;SDS011;39295;45.534;20.034;2023-02-27T05:00:48;11.05;;;5.80;;
53401;SDS011;39295;45.534;20.034;2023-02-27T05:03:17;9.15;;;6.25;;
53401;SDS011;39295;45.534;20.034;2023-02-27T05:05:44;9.35;;;6.47;;
53401;SDS011;39295;45.534;20.034;2023-02-27T05:17:32;12.57;;;8.25;;
53401;SDS011;39295;45.534;20.034;2023-02-27T05:19:59;11.80;;;6.70;;
53401;SDS011;39295;45.534;20.034;2023-02-27T05:30:14;17.25;;;11.70;;
53401;SDS011;39295;45.534;20.034;2023-02-27T05:35:30;17.90;;;11.00;;
53401;SDS011;39295;45.534;20.034;2023-02-27T05:40:33;16.58;;;10.82;;
53401;SDS011;39295;45.534;20.034;2023-02-27T05:43:08;12.05;;;7.57;;
53401;SDS011;39295;45.534;20.034;2023-02-27T05:45:36;13.25;;;8.60;;
53401;SDS011;39295;45.534;20.034;2023-02-27T05:48:06;13.27;;;8.20;;
53401;SDS011;39295;45.534;20.034;2023-02-27T05:50:34;10.63;;;7.15;;
53401;SDS011;39295;45.534;20.034;2023-02-27T05:53:03;11.35;;;6.70;;
53401;SDS011;39295;45.534;20.034;2023-02-27T05:58:07;11.50;;;7.88;;
53401;SDS011;39295;45.534;20.034;2023-02-27T06:03:04;12.10;;;6.88;;
53401;SDS011;39295;45.534;20.034;2023-02-27T06:05:30;12.82;;;7.00;;
53401;SDS011;39295;45.534;20.034;2023-02-27T06:07:56;10.38;;;6.60;;
53401;SDS011;39295;45.534;20.034;2023-02-27T06:10:22;11.15;;;6.97;;
53401;SDS011;39295;45.534;20.034;2023-02-27T06:12:48;10.70;;;6.78;;
53401;SDS011;39295;45.534;20.034;2023-02-27T06:15:15;8.40;;;6.25;;
53401;SDS011;39295;45.534;20.034;2023-02-27T06:17:42;7.97;;;5.82;;
53401;SDS011;39295;45.534;20.034;2023-02-27T06:20:09;8.55;;;5.80;;
53401;SDS011;39295;45.534;20.034;2023-02-27T06:22:35;9.23;;;6.28;;
53401;SDS011;39295;45.534;20.034;2023-02-27T06:25:01;10.25;;;6.20;;
53401;SDS011;39295;45.534;20.034;2023-02-27T06:27:27;13.02;;;7.40;;
53401;SDS011;39295;45.534;20.034;2023-02-27T06:29:53;12.50;;;9.43;;
53401;SDS011;39295;45.534;20.034;2023-02-27T06:32:20;12.15;;;8.70;;
53401;SDS011;39295;45.534;20.034;2023-02-27T06:34:49;14.52;;;10.27;;
53401;SDS011;39295;45.534;20.034;2023-02-27T06:40:00;11.90;;;7.68;;
53401;SDS011;39295;45.534;20.034;2023-02-27T06:42:29;10.00;;;6.22;;
53401;SDS011;39295;45.534;20.034;2023-02-27T06:44:55;6.85;;;5.20;;
53401;SDS011;39295;45.534;20.034;2023-02-27T06:47:21;11.23;;;6.53;;
53401;SDS011;39295;45.534;20.034;2023-02-27T06:49:48;10.25;;;6.85;;
53401;SDS011;39295;45.534;20.034;2023-02-27T06:52:14;12.48;;;7.13;;
53401;SDS011;39295;45.534;20.034;2023-02-27T06:54:40;10.07;;;6.75;;
53401;SDS011;39295;45.534;20.034;2023-02-27T06:57:06;10.25;;;6.10;;
53401;SDS011;39295;45.534;20.034;2023-02-27T06:59:32;11.30;;;6.55;;
53401;SDS011;39295;45.534;20.034;2023-02-27T07:01:58;11.80;;;6.55;;
53401;SDS011;39295;45.534;20.034;2023-02-27T07:04:24;10.02;;;6.03;;
53401;SDS011;39295;45.534;20.034;2023-02-27T07:06:50;10.50;;;5.65;;
53401;SDS011;39295;45.534;20.034;2023-02-27T07:09:17;9.68;;;5.63;;
53401;SDS011;39295;45.534;20.034;2023-02-27T07:11:43;7.43;;;5.50;;
53401;SDS011;39295;45.534;20.034;2023-02-27T07:14:09;7.32;;;5.10;;
53401;SDS011;39295;45.534;20.034;2023-02-27T07:16:36;10.95;;;6.32;;
53401;SDS011;39295;45.534;20.034;2023-02-27T07:19:02;13.80;;;6.05;;
53401;SDS011;39295;45.534;20.034;2023-02-27T07:21:28;15.10;;;8.50;;
53401;SDS011;39295;45.534;20.034;2023-02-27T07:23:54;55.85;;;23.92;;
53401;SDS011;39295;45.534;20.034;2023-02-27T07:26:20;93.88;;;40.30;;
53401;SDS011;39295;45.534;20.034;2023-02-27T07:28:46;50.95;;;27.08;;
53401;SDS011;39295;45.534;20.034;2023-02-27T07:31:12;26.30;;;15.50;;
53401;SDS011;39295;45.534;20.034;2023-02-27T07:33:38;51.70;;;28.73;;
53401;SDS011;39295;45.534;20.034;2023-02-27T07:36:04;33.15;;;18.70;;
53401;SDS011;39295;45.534;20.034;2023-02-27T07:38:31;33.67;;;18.95;;
53401;SDS011;39295;45.534;20.034;2023-02-27T07:40:57;19.92;;;12.43;;
53401;SDS011;39295;45.534;20.034;2023-02-27T07:43:23;19.02;;;12.30;;
53401;SDS011;39295;45.534;20.034;2023-02-27T07:45:49;21.70;;;14.18;;
53401;SDS011;39295;45.534;20.034;2023-02-27T07:48:16;44.38;;;24.80;;
53401;SDS011;39295;45.534;20.034;2023-02-27T07:50:42;31.88;;;18.63;;
53401;SDS011;39295;45.534;20.034;2023-02-27T07:53:08;24.77;;;16.67;;
53401;SDS011;39295;45.534;20.034;2023-02-27T07:55:34;33.53;;;25.75;;
53401;SDS011;39295;45.534;20.034;2023-02-27T07:58:00;22.17;;;15.68;;
53401;SDS011;39295;45.534;20.034;2023-02-27T08:00:26;36.63;;;27.75;;
53401;SDS011;39295;45.534;20.034;2023-02-27T08:02:53;49.47;;;31.35;;
53401;SDS011;39295;45.534;20.034;2023-02-27T08:05:19;46.83;;;28.92;;
53401;SDS011;39295;45.534;20.034;2023-02-27T08:07:45;34.83;;;19.90;;
53401;SDS011;39295;45.534;20.034;2023-02-27T08:10:11;43.03;;;22.67;;
53401;SDS011;39295;45.534;20.034;2023-02-27T08:12:40;18.88;;;10.93;;
53401;SDS011;39295;45.534;20.034;2023-02-27T08:15:06;21.38;;;12.52;;
53401;SDS011;39295;45.534;20.034;2023-02-27T08:17:32;22.88;;;13.02;;
53401;SDS011;39295;45.534;20.034;2023-02-27T08:19:58;14.98;;;8.52;;
53401;SDS011;39295;45.534;20.034;2023-02-27T08:22:24;16.10;;;7.78;;
53401;SDS011;39295;45.534;20.034;2023-02-27T08:24:50;18.27;;;9.98;;
53401;SDS011;39295;45.534;20.034;2023-02-27T08:27:17;13.68;;;8.00;;
53401;SDS011;39295;45.534;20.034;2023-02-27T08:29:43;12.55;;;7.50;;
53401;SDS011;39295;45.534;20.034;2023-02-27T08:32:09;15.18;;;8.55;;
53401;SDS011;39295;45.534;20.034;2023-02-27T08:34:35;20.13;;;10.30;;
53401;SDS011;39295;45.534;20.034;2023-02-27T08:37:02;23.23;;;11.02;;
53401;SDS011;39295;45.534;20.034;2023-02-27T08:39:28;18.50;;;10.73;;
53401;SDS011;39295;45.534;20.034;2023-02-27T08:41:54;17.80;;;10.52;;
53401;SDS011;39295;45.534;20.034;2023-02-27T08:44:20;22.20;;;11.65;;
53401;SDS011;39295;45.534;20.034;2023-02-27T08:46:46;43.83;;;21.25;;
53401;SDS011;39295;45.534;20.034;2023-02-27T08:49:12;46.80;;;18.98;;
53401;SDS011;39295;45.534;20.034;2023-02-27T08:51:38;19.42;;;10.07;;
53401;SDS011;39295;45.534;20.034;2023-02-27T08:54:04;23.80;;;10.90;;
53401;SDS011;39295;45.534;20.034;2023-02-27T08:56:30;23.77;;;11.30;;
53401;SDS011;39295;45.534;20.034;2023-02-27T08:58:58;35.35;;;13.80;;
53401;SDS011;39295;45.534;20.034;2023-02-27T09:01:25;22.85;;;10.73;;
53401;SDS011;39295;45.534;20.034;2023-02-27T09:03:56;24.20;;;10.82;;
53401;SDS011;39295;45.534;20.034;2023-02-27T09:06:22;26.25;;;10.50;;
53401;SDS011;39295;45.534;20.034;2023-02-27T09:08:48;25.13;;;13.20;;
53401;SDS011;39295;45.534;20.034;2023-02-27T09:11:14;35.25;;;14.48;;
53401;SDS011;39295;45.534;20.034;2023-02-27T09:13:41;23.88;;;10.30;;
53401;SDS011;39295;45.534;20.034;2023-02-27T09:16:07;41.70;;;13.82;;
53401;SDS011;39295;45.534;20.034;2023-02-27T09:18:34;34.85;;;12.45;;
53401;SDS011;39295;45.534;20.034;2023-02-27T09:21:00;20.05;;;9.80;;
53401;SDS011;39295;45.534;20.034;2023-02-27T09:23:27;14.90;;;7.93;;
53401;SDS011;39295;45.534;20.034;2023-02-27T09:25:53;19.45;;;8.48;;
53401;SDS011;39295;45.534;20.034;2023-02-27T09:28:19;18.23;;;9.85;;
53401;SDS011;39295;45.534;20.034;2023-02-27T09:30:46;32.83;;;13.18;;
53401;SDS011;39295;45.534;20.034;2023-02-27T09:33:12;19.45;;;10.93;;
53401;SDS011;39295;45.534;20.034;2023-02-27T09:35:39;16.55;;;9.73;;
53401;SDS011;39295;45.534;20.034;2023-02-27T09:38:05;20.88;;;10.70;;
53401;SDS011;39295;45.534;20.034;2023-02-27T09:40:32;23.17;;;10.75;;
53401;SDS011;39295;45.534;20.034;2023-02-27T09:43:14;15.55;;;9.70;;
53401;SDS011;39295;45.534;20.034;2023-02-27T09:45:41;16.70;;;9.57;;
53401;SDS011;39295;45.534;20.034;2023-02-27T09:48:18;22.08;;;10.07;;
53401;SDS011;39295;45.534;20.034;2023-02-27T09:50:46;15.55;;;8.48;;
53401;SDS011;39295;45.534;20.034;2023-02-27T09:55:39;23.20;;;10.73;;
53401;SDS011;39295;45.534;20.034;2023-02-27T10:03:15;10.35;;;7.40;;
53401;SDS011;39295;45.534;20.034;2023-02-27T10:05:57;12.50;;;7.45;;
53401;SDS011;39295;45.534;20.034;2023-02-27T10:11:20;10.77;;;7.10;;
53401;SDS011;39295;45.534;20.034;2023-02-27T10:16:26;16.90;;;9.15;;
53401;SDS011;39295;45.534;20.034;2023-02-27T10:18:55;13.45;;;9.38;;
53401;SDS011;39295;45.534;20.034;2023-02-27T10:21:36;13.23;;;8.15;;
53401;SDS011;39295;45.534;20.034;2023-02-27T10:26:35;14.15;;;7.45;;
53401;SDS011;39295;45.534;20.034;2023-02-27T10:31:40;12.50;;;8.18;;
53401;SDS011;39295;45.534;20.034;2023-02-27T10:34:07;12.52;;;8.23;;
53401;SDS011;39295;45.534;20.034;2023-02-27T10:36:37;13.43;;;7.88;;
53401;SDS011;39295;45.534;20.034;2023-02-27T10:39:05;11.27;;;7.43;;
53401;SDS011;39295;45.534;20.034;2023-02-27T10:41:33;10.10;;;6.53;;
53401;SDS011;39295;45.534;20.034;2023-02-27T10:43:59;11.27;;;6.20;;
53401;SDS011;39295;45.534;20.034;2023-02-27T10:46:29;9.18;;;6.70;;
53401;SDS011;39295;45.534;20.034;2023-02-27T10:48:59;13.23;;;8.00;;
53401;SDS011;39295;45.534;20.034;2023-02-27T10:51:30;10.40;;;7.28;;
53401;SDS011;39295;45.534;20.034;2023-02-27T10:54:13;8.32;;;6.78;;
53401;SDS011;39295;45.534;20.034;2023-02-27T10:56:40;12.00;;;8.32;;
53401;SDS011;39295;45.534;20.034;2023-02-27T10:59:15;15.57;;;10.23;;
53401;SDS011;39295;45.534;20.034;2023-02-27T11:01:46;12.82;;;9.02;;
53401;SDS011;39295;45.534;20.034;2023-02-27T11:04:13;11.18;;;7.85;;
53401;SDS011;39295;45.534;20.034;2023-02-27T11:06:49;12.70;;;9.35;;
53401;SDS011;39295;45.534;20.034;2023-02-27T11:11:42;12.52;;;7.85;;
53401;SDS011;39295;45.534;20.034;2023-02-27T11:14:30;10.10;;;6.57;;
53401;SDS011;39295;45.534;20.034;2023-02-27T11:16:56;9.15;;;6.30;;
53401;SDS011;39295;45.534;20.034;2023-02-27T11:19:28;9.68;;;6.68;;
53401;SDS011;39295;45.534;20.034;2023-02-27T11:21:59;12.98;;;7.50;;
53401;SDS011;39295;45.534;20.034;2023-02-27T11:24:26;9.82;;;7.03;;
53401;SDS011;39295;45.534;20.034;2023-02-27T11:26:54;10.70;;;7.50;;
53401;SDS011;39295;45.534;20.034;2023-02-27T11:29:21;10.75;;;7.13;;
53401;SDS011;39295;45.534;20.034;2023-02-27T11:34:17;12.05;;;7.43;;
53401;SDS011;39295;45.534;20.034;2023-02-27T11:36:45;12.10;;;8.70;;
53401;SDS011;39295;45.534;20.034;2023-02-27T11:39:46;13.25;;;8.98;;
53401;SDS011;39295;45.534;20.034;2023-02-27T11:42:13;11.13;;;7.70;;
53401;SDS011;39295;45.534;20.034;2023-02-27T11:44:46;12.15;;;7.95;;
53401;SDS011;39295;45.534;20.034;2023-02-27T11:47:15;8.43;;;6.50;;
53401;SDS011;39295;45.534;20.034;2023-02-27T11:52:33;10.75;;;6.85;;
53401;SDS011;39295;45.534;20.034;2023-02-27T11:55:01;11.27;;;6.43;;
53401;SDS011;39295;45.534;20.034;2023-02-27T11:57:29;10.88;;;7.72;;
53401;SDS011;39295;45.534;20.034;2023-02-27T12:05:00;18.95;;;8.73;;
53401;SDS011;39295;45.534;20.034;2023-02-27T12:10:38;10.55;;;7.50;;
53401;SDS011;39295;45.534;20.034;2023-02-27T12:18:07;10.13;;;7.45;;
53401;SDS011;39295;45.534;20.034;2023-02-27T12:20:39;12.15;;;7.90;;
53401;SDS011;39295;45.534;20.034;2023-02-27T12:25:49;12.02;;;7.55;;
53401;SDS011;39295;45.534;20.034;2023-02-27T12:28:22;10.25;;;7.65;;
53401;SDS011;39295;45.534;20.034;2023-02-27T12:30:52;11.25;;;7.53;;
53401;SDS011;39295;45.534;20.034;2023-02-27T12:35:54;14.02;;;8.93;;
53401;SDS011;39295;45.534;20.034;2023-02-27T12:38:24;12.70;;;7.95;;
53401;SDS011;39295;45.534;20.034;2023-02-27T12:41:14;9.60;;;7.50;;
53401;SDS011;39295;45.534;20.034;2023-02-27T12:53:59;12.50;;;8.23;;
53401;SDS011;39295;45.534;20.034;2023-02-27T12:56:35;10.00;;;7.63;;
53401;SDS011;39295;45.534;20.034;2023-02-27T13:01:45;10.15;;;7.65;;
53401;SDS011;39295;45.534;20.034;2023-02-27T13:06:50;38.13;;;19.48;;
53401;SDS011;39295;45.534;20.034;2023-02-27T13:14:23;11.38;;;8.15;;
53401;SDS011;39295;45.534;20.034;2023-02-27T13:16:55;13.27;;;9.40;;
53401;SDS011;39295;45.534;20.034;2023-02-27T13:19:25;17.50;;;11.57;;
53401;SDS011;39295;45.534;20.034;2023-02-27T13:21:55;14.52;;;9.80;;
53401;SDS011;39295;45.534;20.034;2023-02-27T13:24:25;15.73;;;10.43;;
53401;SDS011;39295;45.534;20.034;2023-02-27T13:27:13;14.07;;;8.85;;
53401;SDS011;39295;45.534;20.034;2023-02-27T13:29:42;44.80;;;16.20;;
53401;SDS011;39295;45.534;20.034;2023-02-27T13:32:33;50.05;;;17.35;;
53401;SDS011;39295;45.534;20.034;2023-02-27T13:35:02;18.63;;;10.65;;
53401;SDS011;39295;45.534;20.034;2023-02-27T13:40:35;45.78;;;20.92;;
53401;SDS011;39295;45.534;20.034;2023-02-27T13:48:52;20.73;;;12.93;;
53401;SDS011;39295;45.534;20.034;2023-02-27T13:54:22;24.10;;;14.77;;
53401;SDS011;39295;45.534;20.034;2023-02-27T13:59:29;16.60;;;11.00;;
53401;SDS011;39295;45.534;20.034;2023-02-27T14:01:57;21.40;;;12.40;;
53401;SDS011;39295;45.534;20.034;2023-02-27T14:04:25;16.45;;;10.18;;
53401;SDS011;39295;45.534;20.034;2023-02-27T14:07:05;18.00;;;11.27;;
53401;SDS011;39295;45.534;20.034;2023-02-27T14:09:38;33.13;;;16.55;;
53401;SDS011;39295;45.534;20.034;2023-02-27T14:12:05;31.42;;;17.35;;
53401;SDS011;39295;45.534;20.034;2023-02-27T14:14:36;22.83;;;14.63;;
53401;SDS011;39295;45.534;20.034;2023-02-27T14:21:59;24.75;;;13.27;;
53401;SDS011;39295;45.534;20.034;2023-02-27T14:26:57;15.90;;;9.60;;
53401;SDS011;39295;45.534;20.034;2023-02-27T14:29:28;16.88;;;9.57;;
53401;SDS011;39295;45.534;20.034;2023-02-27T14:31:58;12.25;;;8.57;;
53401;SDS011;39295;45.534;20.034;2023-02-27T14:34:25;11.88;;;8.75;;
53401;SDS011;39295;45.534;20.034;2023-02-27T14:36:53;11.80;;;8.77;;
53401;SDS011;39295;45.534;20.034;2023-02-27T14:39:21;14.23;;;9.88;;
53401;SDS011;39295;45.534;20.034;2023-02-27T14:41:53;11.25;;;7.80;;
53401;SDS011;39295;45.534;20.034;2023-02-27T14:44:23;13.00;;;9.15;;
53401;SDS011;39295;45.534;20.034;2023-02-27T14:46:50;21.02;;;12.75;;
53401;SDS011;39295;45.534;20.034;2023-02-27T14:49:18;23.95;;;13.70;;
53401;SDS011;39295;45.534;20.034;2023-02-27T14:51:44;15.63;;;10.32;;
53401;SDS011;39295;45.534;20.034;2023-02-27T14:54:14;11.20;;;8.55;;
53401;SDS011;39295;45.534;20.034;2023-02-27T14:56:44;12.60;;;8.82;;
53401;SDS011;39295;45.534;20.034;2023-02-27T14:59:51;13.57;;;9.02;;
53401;SDS011;39295;45.534;20.034;2023-02-27T15:02:21;13.07;;;9.15;;
53401;SDS011;39295;45.534;20.034;2023-02-27T15:07:37;13.85;;;9.68;;
53401;SDS011;39295;45.534;20.034;2023-02-27T15:10:05;18.58;;;11.35;;
53401;SDS011;39295;45.534;20.034;2023-02-27T15:12:35;13.25;;;9.27;;
53401;SDS011;39295;45.534;20.034;2023-02-27T15:15:02;14.40;;;9.10;;
53401;SDS011;39295;45.534;20.034;2023-02-27T15:17:36;13.93;;;10.48;;
53401;SDS011;39295;45.534;20.034;2023-02-27T15:20:14;64.57;;;31.42;;
53401;SDS011;39295;45.534;20.034;2023-02-27T15:22:41;36.88;;;20.92;;
53401;SDS011;39295;45.534;20.034;2023-02-27T15:25:24;29.77;;;18.23;;
53401;SDS011;39295;45.534;20.034;2023-02-27T15:27:51;29.83;;;16.55;;
53401;SDS011;39295;45.534;20.034;2023-02-27T15:30:18;68.35;;;26.27;;
53401;SDS011;39295;45.534;20.034;2023-02-27T15:32:45;45.88;;;18.15;;
53401;SDS011;39295;45.534;20.034;2023-02-27T15:37:58;37.50;;;19.27;;
53401;SDS011;39295;45.534;20.034;2023-02-27T15:40:27;31.55;;;16.88;;
53401;SDS011;39295;45.534;20.034;2023-02-27T15:42:54;24.08;;;14.35;;
53401;SDS011;39295;45.534;20.034;2023-02-27T15:45:22;20.08;;;12.63;;
53401;SDS011;39295;45.534;20.034;2023-02-27T15:47:49;18.48;;;12.55;;
53401;SDS011;39295;45.534;20.034;2023-02-27T15:52:52;19.65;;;10.30;;
53401;SDS011;39295;45.534;20.034;2023-02-27T15:55:23;20.20;;;11.98;;
53401;SDS011;39295;45.534;20.034;2023-02-27T15:57:49;26.38;;;14.75;;
53401;SDS011;39295;45.534;20.034;2023-02-27T16:00:16;20.88;;;13.00;;
53401;SDS011;39295;45.534;20.034;2023-02-27T16:02:49;19.63;;;11.70;;
53401;SDS011;39295;45.534;20.034;2023-02-27T16:05:17;16.95;;;11.63;;
53401;SDS011;39295;45.534;20.034;2023-02-27T16:07:43;22.65;;;13.02;;
53401;SDS011;39295;45.534;20.034;2023-02-27T16:10:16;28.75;;;14.93;;
53401;SDS011;39295;45.534;20.034;2023-02-27T16:12:43;25.30;;;15.05;;
53401;SDS011;39295;45.534;20.034;2023-02-27T16:15:27;19.70;;;12.27;;
53401;SDS011;39295;45.534;20.034;2023-02-27T16:23:06;21.33;;;13.00;;
53401;SDS011;39295;45.534;20.034;2023-02-27T16:25:40;20.75;;;12.40;;
53401;SDS011;39295;45.534;20.034;2023-02-27T16:28:13;21.85;;;13.38;;
53401;SDS011;39295;45.534;20.034;2023-02-27T16:30:39;22.70;;;13.75;;
53401;SDS011;39295;45.534;20.034;2023-02-27T16:33:19;18.50;;;12.05;;
53401;SDS011;39295;45.534;20.034;2023-02-27T16:35:47;17.45;;;10.90;;
53401;SDS011;39295;45.534;20.034;2023-02-27T16:38:14;14.05;;;10.02;;
53401;SDS011;39295;45.534;20.034;2023-02-27T16:40:43;21.00;;;11.18;;
53401;SDS011;39295;45.534;20.034;2023-02-27T16:43:10;40.13;;;23.27;;
53401;SDS011;39295;45.534;20.034;2023-02-27T16:45:36;45.08;;;22.38;;
53401;SDS011;39295;45.534;20.034;2023-02-27T16:48:02;43.15;;;21.00;;
53401;SDS011;39295;45.534;20.034;2023-02-27T16:50:33;41.88;;;22.83;;
53401;SDS011;39295;45.534;20.034;2023-02-27T16:52:59;32.28;;;19.70;;
53401;SDS011;39295;45.534;20.034;2023-02-27T16:55:26;20.88;;;13.73;;
53401;SDS011;39295;45.534;20.034;2023-02-27T16:57:52;19.90;;;11.73;;
53401;SDS011;39295;45.534;20.034;2023-02-27T17:00:19;23.85;;;14.70;;
53401;SDS011;39295;45.534;20.034;2023-02-27T17:02:46;20.30;;;12.48;;
53401;SDS011;39295;45.534;20.034;2023-02-27T17:05:12;20.65;;;12.45;;
53401;SDS011;39295;45.534;20.034;2023-02-27T17:07:39;31.02;;;15.07;;
53401;SDS011;39295;45.534;20.034;2023-02-27T17:10:05;37.47;;;17.50;;
53401;SDS011;39295;45.534;20.034;2023-02-27T17:12:31;24.10;;;13.68;;
53401;SDS011;39295;45.534;20.034;2023-02-27T17:14:57;24.70;;;13.98;;
53401;SDS011;39295;45.534;20.034;2023-02-27T17:17:23;21.98;;;14.63;;
53401;SDS011;39295;45.534;20.034;2023-02-27T17:19:50;21.55;;;12.65;;
53401;SDS011;39295;45.534;20.034;2023-02-27T17:22:16;19.70;;;10.32;;
53401;SDS011;39295;45.534;20.034;2023-02-27T17:24:42;19.45;;;11.75;;
53401;SDS011;39295;45.534;20.034;2023-02-27T17:27:09;20.20;;;12.60;;
53401;SDS011;39295;45.534;20.034;2023-02-27T17:29:38;21.08;;;12.60;;
53401;SDS011;39295;45.534;20.034;2023-02-27T17:32:04;29.35;;;16.40;;
53401;SDS011;39295;45.534;20.034;2023-02-27T17:34:30;32.20;;;15.27;;
53401;SDS011;39295;45.534;20.034;2023-02-27T17:40:00;39.35;;;19.13;;
53401;SDS011;39295;45.534;20.034;2023-02-27T17:42:30;33.72;;;17.02;;
53401;SDS011;39295;45.534;20.034;2023-02-27T17:44:56;31.88;;;17.70;;
53401;SDS011;39295;45.534;20.034;2023-02-27T17:47:22;41.17;;;22.73;;
53401;SDS011;39295;45.534;20.034;2023-02-27T17:49:48;34.60;;;20.13;;
53401;SDS011;39295;45.534;20.034;2023-02-27T17:52:14;29.95;;;17.70;;
53401;SDS011;39295;45.534;20.034;2023-02-27T17:54:40;41.45;;;24.50;;
53401;SDS011;39295;45.534;20.034;2023-02-27T17:57:06;52.28;;;31.60;;
53401;SDS011;39295;45.534;20.034;2023-02-27T17:59:35;59.47;;;33.63;;
53401;SDS011;39295;45.534;20.034;2023-02-27T18:02:01;40.88;;;25.15;;
53401;SDS011;39295;45.534;20.034;2023-02-27T18:04:27;35.92;;;22.33;;
53401;SDS011;39295;45.534;20.034;2023-02-27T18:06:53;53.33;;;30.83;;
53401;SDS011;39295;45.534;20.034;2023-02-27T18:09:19;73.78;;;42.95;;
53401;SDS011;39295;45.534;20.034;2023-02-27T18:11:45;69.75;;;39.10;;
53401;SDS011;39295;45.534;20.034;2023-02-27T18:14:11;72.38;;;43.05;;
53401;SDS011;39295;45.534;20.034;2023-02-27T18:16:37;80.13;;;45.45;;
53401;SDS011;39295;45.534;20.034;2023-02-27T18:19:04;66.22;;;38.83;;
53401;SDS011;39295;45.534;20.034;2023-02-27T18:21:31;78.53;;;44.45;;
53401;SDS011;39295;45.534;20.034;2023-02-27T18:23:57;101.05;;;52.15;;
53401;SDS011;39295;45.534;20.034;2023-02-27T18:26:24;56.53;;;31.48;;
53401;SDS011;39295;45.534;20.034;2023-02-27T18:28:51;144.13;;;50.78;;
53401;SDS011;39295;45.534;20.034;2023-02-27T18:31:34;325.63;;;102.15;;
53401;SDS011;39295;45.534;20.034;2023-02-27T18:34:01;114.40;;;38.47;;
53401;SDS011;39295;45.534;20.034;2023-02-27T18:36:27;36.05;;;17.00;;
53401;SDS011;39295;45.534;20.034;2023-02-27T18:38:53;32.22;;;16.45;;
53401;SDS011;39295;45.534;20.034;2023-02-27T18:41:19;22.83;;;12.73;;
53401;SDS011;39295;45.534;20.034;2023-02-27T18:43:45;22.73;;;13.48;;
53401;SDS011;39295;45.534;20.034;2023-02-27T18:46:12;20.40;;;13.90;;
53401;SDS011;39295;45.534;20.034;2023-02-27T18:48:39;23.40;;;14.25;;
53401;SDS011;39295;45.534;20.034;2023-02-27T18:51:06;21.65;;;14.30;;
53401;SDS011;39295;45.534;20.034;2023-02-27T18:53:36;33.20;;;19.08;;
53401;SDS011;39295;45.534;20.034;2023-02-27T18:56:03;25.85;;;15.98;;
53401;SDS011;39295;45.534;20.034;2023-02-27T18:58:30;18.45;;;12.90;;
53401;SDS011;39295;45.534;20.034;2023-02-27T19:00:56;23.25;;;12.73;;
53401;SDS011;39295;45.534;20.034;2023-02-27T19:03:24;18.05;;;11.73;;
53401;SDS011;39295;45.534;20.034;2023-02-27T19:05:50;20.60;;;12.60;;
53401;SDS011;39295;45.534;20.034;2023-02-27T19:08:16;18.20;;;11.70;;
53401;SDS011;39295;45.534;20.034;2023-02-27T19:10:42;19.10;;;12.93;;
53401;SDS011;39295;45.534;20.034;2023-02-27T19:13:08;21.35;;;13.55;;
53401;SDS011;39295;45.534;20.034;2023-02-27T19:15:37;18.65;;;13.32;;
53401;SDS011;39295;45.534;20.034;2023-02-27T19:18:03;38.55;;;17.55;;
53401;SDS011;39295;45.534;20.034;2023-02-27T19:20:30;91.38;;;32.35;;
53401;SDS011;39295;45.534;20.034;2023-02-27T19:22:56;60.00;;;26.35;;
53401;SDS011;39295;45.534;20.034;2023-02-27T19:25:23;59.53;;;26.63;;
53401;SDS011;39295;45.534;20.034;2023-02-27T19:27:53;48.90;;;25.25;;
53401;SDS011;39295;45.534;20.034;2023-02-27T19:30:19;37.55;;;20.83;;
53401;SDS011;39295;45.534;20.034;2023-02-27T19:32:45;32.95;;;20.63;;
53401;SDS011;39295;45.534;20.034;2023-02-27T19:35:11;31.92;;;21.60;;
53401;SDS011;39295;45.534;20.034;2023-02-27T19:37:42;39.25;;;23.15;;
53401;SDS011;39295;45.534;20.034;2023-02-27T19:40:11;52.78;;;34.13;;
53401;SDS011;39295;45.534;20.034;2023-02-27T19:42:37;51.13;;;32.70;;
53401;SDS011;39295;45.534;20.034;2023-02-27T19:45:03;41.67;;;26.70;;
53401;SDS011;39295;45.534;20.034;2023-02-27T19:47:29;44.92;;;26.65;;
53401;SDS011;39295;45.534;20.034;2023-02-27T19:49:55;49.63;;;27.33;;
53401;SDS011;39295;45.534;20.034;2023-02-27T19:52:21;28.65;;;17.45;;
53401;SDS011;39295;45.534;20.034;2023-02-27T19:54:47;18.83;;;13.40;;
53401;SDS011;39295;45.534;20.034;2023-02-27T19:57:13;19.00;;;13.05;;
53401;SDS011;39295;45.534;20.034;2023-02-27T19:59:39;16.95;;;12.02;;
53401;SDS011;39295;45.534;20.034;2023-02-27T20:02:06;19.25;;;12.10;;
53401;SDS011;39295;45.534;20.034;2023-02-27T20:04:32;16.52;;;11.20;;
53401;SDS011;39295;45.534;20.034;2023-02-27T20:06:58;25.90;;;14.80;;
53401;SDS011;39295;45.534;20.034;2023-02-27T20:09:25;58.35;;;24.95;;
53401;SDS011;39295;45.534;20.034;2023-02-27T20:11:52;42.58;;;20.58;;
53401;SDS011;39295;45.534;20.034;2023-02-27T20:14:20;47.03;;;23.95;;
53401;SDS011;39295;45.534;20.034;2023-02-27T20:16:47;48.05;;;23.08;;
53401;SDS011;39295;45.534;20.034;2023-02-27T20:19:14;56.55;;;25.58;;